Tiempo atmosférico en la estación meteorológica de Benasque, Huesca (1120 m.)



Fecha
DESCASC
Temp. máxima en grados centígrados (hora)
DESCASC
Temp. mínima en grados centígrados (hora)
DESCASC
Temp. media en grados centígrados
DESCASC
Racha de viento máxima en m/sg (hora)
DESCASC
Velocidad máxima media en intervalos de 10 minutos(hora)
DESCASC
Precipitaciones diarias en mm
DESCASC
Precipitaciones de 00:00 a 06:00 en mm
DESCASC
Precipitaciones de 06:00 a 12:00 en mm
DESCASC
Precipitaciones de 12:00 a 18:00 en mm
DESCASC
Precipitaciones de 18:00 a 24:00 en mm
DESCASC
08-12-2019 12.7 (15:30) -4.2 (09:00) 4.3 11.11 (21:40) 5 (21:40) 0 0 0 0 0
07-12-2019 12.5 (15:30) -3.9 (07:20) 4.3 3.61 (16:00) 2.5 (15:50) 0 0 0 0 0
06-12-2019 11.9 (15:20) -2.3 (08:00) 4.8 4.17 (14:10) 2.78 (14:00) 0 0 0 0 0
05-12-2019 12.2 (14:50) -0.7 (-00:0) 5.7 11.39 (16:00) 5.56 (15:20) 0 0 0 0 0
04-12-2019 10.7 (15:10) -3.4 (-00:0) 3.6 10.83 (16:00) 4.17 (16:00) 0 0 0 0 0
03-12-2019 11.4 (15:10) -6 (-00:0) 2.7 3.06 (16:20) 2.22 (16:40) 0 0 0 0 0
02-12-2019 10.1 (14:50) -2.8 (-00:0) 3.7 13.06 (06:40) 6.94 (07:10) 0 0 0 0 0
01-12-2019 8.7 (16:00) -1.7 (-00:0) 3.5 6.39 (18:10) 3.06 (18:40) 0.6 0.6 0 0 0
30-11-2019 10.3 (14:00) -2 (-00:0) 4.2 5.28 (21:40) 2.22 (05:30) 12.4 0 0 0 12.4
29-11-2019 13.9 (15:30) -0.2 (00:00) 6.8 3.33 (16:40) 1.67 (16:40) 0 0 0 0 0
28-11-2019 10.7 (15:30) 2.4 (00:00) 6.5 4.72 (16:10) 2.78 (16:10) 2.4 0.8 0 0 1.6
27-11-2019 10.2 (14:10) 1.2 (00:00) 5.7 6.39 (17:00) 4.17 (16:50) 4 3.6 0 0 0.4
26-11-2019 13 (14:50) -2.3 (-00:0) 5.4 6.39 (22:50) 3.33 (13:40) 0.8 0 0 0 0.8
25-11-2019 14 (14:40) -3 (-00:0) 5.5 4.44 (13:50) 2.78 (13:50) 0 0 0 0 0
24-11-2019 10.3 (15:40) -0.4 (00:00) 5 18.33 (05:50) 8.89 (00:30) 0 0 0 0 0
23-11-2019 6.9 (23:40) 1.6 (00:00) 4.3 16.11 (20:20) 8.89 (21:30) 6.2 4 0.4 1.6 0.2
22-11-2019 5.4 (13:00) -0.4 (00:00) 2.5 10.56 (15:10) 6.39 (15:10) 26.8 0 0 6.8 20
21-11-2019 8.4 (15:10) -4.9 (-00:0) 1.7 6.94 (14:50) 3.89 (16:20) 0 0 0 0 0
20-11-2019 8.2 (15:00) -7.3 (-00:0) 0.4 3.61 (15:40) 2.5 (15:40) 0 0 0 0 0
19-11-2019 10.2 (14:40) -7 (-00:0) 1.6 5.56 (00:10) 3.33 (00:30) 0 0 0 0 0
18-11-2019 8.2 (14:10) -2.6 (-00:0) 2.8 13.61 (08:50) 7.5 (11:50) 0 0 0 0 0
17-11-2019 7.2 (14:10) -5.2 (-00:0) 1 3.89 (15:10) 2.5 (15:20) 0 0 0 0 0
16-11-2019 3.7 (13:30) -9.3 (-00:0) -2.8 2.78 (22:50) 1.39 (22:50) 0 0 0 0 0
15-11-2019 3 (13:10) -7.4 (-00:0) -2.2 4.72 (13:50) 2.78 (13:50) 0.8 0 0 0.8 0
14-11-2019 4.8 (14:00) -3.8 (-00:0) 0.5 7.22 (08:40) 3.61 (08:50) 9.2 5 4.2 0 0
13-11-2019 10.8 (14:00) -2.5 (-00:0) 4.2 11.67 (12:30) 5.83 (13:10) 0 0 0 0 0
12-11-2019 9.7 (14:30) -1.1 (-00:0) 4.3 13.33 (02:40) 7.5 (01:20) 0 0 0 0 0
11-11-2019 11.1 (14:10) -0.6 (06:50) 5.3 16.39 (18:50) 8.06 (23:40) 0.2 0 0 0.2 0

Gráficas

Temp. máximas Temp. mínimas Temp. medias Precipitaciones Rachas de viento máximas Velocidades máximas media en intervalos de 10 minutos

Datos horarios

Fecha y hora oficial Temperatura (ºC) Velocidad del viento (km/h) Dirección del viento Racha (km/h) Dirección de racha Precipitación (mm) Presión (hPa) Tendencia (hPa) Humedad (%)
2019-12-10 23:00:00 -0.3 3 Oeste 7 Este 0 -- -- 68
2019-12-10 22:00:00 0.4 0 Calma 5 Sudeste 0 -- -- 64
2019-12-10 21:00:00 1.6 2 Sudoeste 8 Sudeste 0 -- -- 58
2019-12-10 20:00:00 1.7 3 Sudoeste 8 Sudoeste 0 -- -- 56
2019-12-10 19:00:00 2 0 Calma 10 Oeste 0 -- -- 51
2019-12-10 18:00:00 4.3 5 Sur 9 Sudoeste 0 -- -- 42
2019-12-10 17:00:00 9.7 7 Oeste 18 Este 0 -- -- 31
2019-12-10 16:00:00 14.8 12 Nordeste 32 Este 0 -- -- 14
2019-12-10 15:00:00 15.3 18 Nordeste 35 Este 0 -- -- 15
2019-12-10 14:00:00 14.2 17 Nordeste 46 Este 0 -- -- 18
2019-12-10 13:00:00 14.1 25 Nordeste 51 Nordeste 0 -- -- 18
2019-12-10 12:00:00 13.5 23 Este 55 Este 0 -- -- 20
2019-12-10 11:00:00 12.6 29 Nordeste 65 Este 0 -- -- 24
2019-12-10 10:00:00 11.1 26 Este 63 Este 0 -- -- 24
2019-12-10 09:00:00 10.2 26 Este 51 Este 0 -- -- 24
2019-12-10 08:00:00 9.7 28 Nordeste 53 Este 0 -- -- 21
2019-12-10 07:00:00 9.3 26 Nordeste 52 Este 0 -- -- 18
2019-12-10 06:00:00 8.3 17 Este 49 Este 0 -- -- 18
2019-12-10 05:00:00 7.5 23 Nordeste 56 Este 0 -- -- 26
2019-12-10 04:00:00 7.3 26 Este 58 Este 0 -- -- 29
2019-12-10 03:00:00 6.8 22 Nordeste 62 Este 0 -- -- 33
2019-12-10 02:00:00 6.2 20 Nordeste 53 Este 0 -- -- 39
2019-12-10 01:00:00 5.2 22 Este 65 Nordeste 0 -- -- 49
2019-12-10 00:00:00 5.3 19 Nordeste 51 Este 0 -- -- 53
2019-12-09 23:00:00 3.3 18 Norte 34 Norte 0 -- -- 76
2019-12-09 22:00:00 3.8 12 Norte 32 Norte 0 -- -- 71
2019-12-09 21:00:00 4.6 14 Nordeste 35 Norte 0 -- -- 59
2019-12-09 20:00:00 4.6 6 Norte 30 Este 0 -- -- 60
2019-12-09 19:00:00 5 17 Nordeste 35 Este 0 -- -- 58
2019-12-09 18:00:00 4.6 10 Norte 31 Este 0 -- -- 68
2019-12-09 17:00:00 5.4 12 Nordeste 35 Este 0 -- -- 64
2019-12-09 16:00:00 6.8 14 Nordeste 37 Este 0 -- -- 51
2019-12-09 15:00:00 6.5 15 Nordeste 47 Este 0 -- -- 56
2019-12-09 14:00:00 8.2 17 Este 40 Nordeste 0 -- -- 40
2019-12-09 13:00:00 8 18 Este 46 Este 0 -- -- 49
2019-12-09 12:00:00 6.5 14 Nordeste 35 Nordeste 0 -- -- 63
2019-12-09 11:00:00 7.2 16 Nordeste 49 Este 0 -- -- 62
2019-12-09 10:00:00 8.4 21 Este 62 Este 0 -- -- 48
2019-12-09 09:00:00 8.4 24 Este 67 Este 0 -- -- 44
2019-12-09 08:00:00 8.9 28 Nordeste 66 Este 0 -- -- 38
2019-12-09 07:00:00 5.6 14 Norte 44 Norte 0 -- -- 46
2019-12-09 06:00:00 0.6 8 Nordeste 24 Noroeste 0 -- -- 65
2019-12-09 05:00:00 0 10 Oeste 22 Oeste 0 -- -- 72
2019-12-09 04:00:00 -1.2 6 Noroeste 15 Oeste 0 -- -- 80
2019-12-09 03:00:00 -0.2 3 Nordeste 14 Sudoeste 0 -- -- 82
2019-12-09 02:00:00 0.6 4 Nordeste 15 Oeste 0 -- -- 87
2019-12-09 01:00:00 2.1 6 Este 14 Sudoeste 0 -- -- 86
2019-12-09 00:00:00 4.7 10 Sudoeste 37 Este 0 -- -- 75
2019-12-08 23:00:00 5.2 6 Oeste 19 Oeste 0 -- -- 83
2019-12-08 22:00:00 8.2 8 Sudoeste 40 Nordeste 0 -- -- 68
2019-12-08 21:00:00 5.5 5 Sudoeste 9 Oeste 0 -- -- 83
2019-12-08 20:00:00 5.7 3 Este 12 Sudoeste 0 -- -- 81
2019-12-08 19:00:00 5.8 0 Calma 6 Sudeste 0 -- -- 84
2019-12-08 18:00:00 6.2 3 Sudeste 5 Sudeste 0 -- -- 77
2019-12-08 17:00:00 7.4 3 Sur 12 Sudoeste 0 -- -- 72
2019-12-08 16:00:00 10 7 Sudoeste 10 Oeste 0 -- -- 57
2019-12-08 15:00:00 11 4 Sudoeste 9 Oeste 0 -- -- 51
2019-12-08 14:00:00 9.9 4 Sudoeste 9 Sudoeste 0 -- -- 45
2019-12-08 13:00:00 7.4 2 Sudeste 5 Sudeste 0 -- -- 51
2019-12-08 12:00:00 4.6 0 Calma 6 Sudoeste 0 -- -- 65
2019-12-08 11:00:00 1.5 0 Calma 4 Este 0 -- -- 78
2019-12-08 10:00:00 -3.1 3 Este 4 Sudeste 0 -- -- 96
2019-12-08 09:00:00 -4.2 2 Sur 5 Sudeste 0 -- -- 97
2019-12-08 08:00:00 -4.1 0 Calma 5 Este 0 -- -- 96
2019-12-08 07:00:00 -3.5 4 Nordeste 7 Sudoeste 0 -- -- 97
2019-12-08 06:00:00 -2.8 3 Este 8 Norte 0 -- -- 97
2019-12-08 05:00:00 -3.2 3 Sudeste 6 Sudeste 0 -- -- 98
2019-12-08 04:00:00 -3.1 0 Calma 4 Sudeste 0 -- -- 97
2019-12-08 03:00:00 -2.7 0 Calma 4 Nordeste 0 -- -- 96
2019-12-08 02:00:00 -2 3 Oeste 5 Oeste 0 -- -- 98
2019-12-08 01:00:00 -1.9 0 Calma 5 Sudeste 0 -- -- 97
2019-12-08 00:00:00 -1.6 0 Calma 5 Sudeste 0 -- -- 96
2019-12-07 23:00:00 -1 3 Nordeste 4 Norte 0 -- -- 95
2019-12-07 22:00:00 -1.1 0 Calma 4 Este 0 -- -- 96
2019-12-07 21:00:00 -0.4 3 Este 5 Sudeste 0 -- -- 92
2019-12-07 20:00:00 0.2 0 Calma 4 Sudeste 0 -- -- 90
2019-12-07 19:00:00 1.4 0 Calma 5 Sudeste 0 -- -- 90
2019-12-07 18:00:00 2.7 0 Calma 5 Nordeste 0 -- -- 85
2019-12-07 17:00:00 5.7 0 Calma 9 Sur 0 -- -- 75
2019-12-07 16:00:00 11.6 8 Sudoeste 13 Sudoeste 0 -- -- 54
2019-12-07 15:00:00 12.1 6 Sudoeste 11 Sudoeste 0 -- -- 49
2019-12-07 14:00:00 10.2 6 Sudoeste 12 Sudoeste 0 -- -- 50
2019-12-07 13:00:00 8.2 2 Sur 5 Este 0 -- -- 57
2019-12-07 12:00:00 4.8 0 Calma 4 Sudeste 0 -- -- 73
2019-12-07 11:00:00 1.8 2 Sudeste 4 Oeste 0 -- -- 87
2019-12-07 10:00:00 -2.2 3 Nordeste 5 Nordeste 0 -- -- 98
2019-12-07 09:00:00 -3.2 2 Este 4 Este 0 -- -- 98
2019-12-07 08:00:00 -3.6 2 Este 4 Sudeste 0 -- -- 98
2019-12-07 07:00:00 -3.5 2 Sudeste 5 Sudoeste 0 -- -- 97
2019-12-07 06:00:00 -3.4 2 Este 8 Sudoeste 0 -- -- 97
2019-12-07 05:00:00 -3.1 6 Sudoeste 9 Oeste 0 -- -- 97
2019-12-07 04:00:00 -3.1 2 Este 5 Sudeste 0 -- -- 98
2019-12-07 03:00:00 -2.7 3 Este 5 Sudeste 0 -- -- 98
2019-12-07 02:00:00 -2.6 3 Norte 7 Este 0 -- -- 97
2019-12-07 01:00:00 -2.4 2 Este 6 Este 0 -- -- 97
2019-12-07 00:00:00 -1.8 3 Norte 5 Norte 0 -- -- 97
2019-12-06 23:00:00 -1.6 0 Calma 6 Sudeste 0 -- -- 96
2019-12-06 22:00:00 -1.1 2 Sudoeste 4 Este 0 -- -- 95
2019-12-06 21:00:00 -0.1 2 Este 4 Este 0 -- -- 94
2019-12-06 20:00:00 0.7 0 Calma 4 Este 0 -- -- 89
2019-12-06 19:00:00 1.5 0 Calma 5 Sudeste 0 -- -- 89
2019-12-06 18:00:00 3.3 2 Sur 5 Noroeste 0 -- -- 82
2019-12-06 17:00:00 6.6 0 Calma 10 Oeste 0 -- -- 72
2019-12-06 16:00:00 11 7 Sudoeste 15 Sudoeste 0 -- -- 60
2019-12-06 15:00:00 11.5 5 Sudoeste 15 Sudoeste 0 -- -- 57
2019-12-06 14:00:00 9.4 10 Sudoeste 14 Sudoeste 0 -- -- 62
2019-12-06 13:00:00 7.7 3 Sudeste 5 Sudeste 0 -- -- 63
2019-12-06 12:00:00 5.5 3 Sudeste 5 Sudeste 0 -- -- 74
2019-12-06 11:00:00 3.1 2 Sudeste 4 Sudeste 0 -- -- 88
2019-12-06 10:00:00 -1.5 0 Calma 8 Oeste 0 -- -- 98
2019-12-06 09:00:00 -2.1 2 Oeste 4 Oeste 0 -- -- 99
2019-12-06 08:00:00 -2.3 0 Calma 4 Sudeste 0 -- -- 99
2019-12-06 07:00:00 -1.9 0 Calma 4 Sudeste 0 -- -- 99
2019-12-06 06:00:00 -1.1 2 Sudeste 4 Sudeste 0 -- -- 98
2019-12-06 05:00:00 0.2 2 Este 5 Oeste 0 -- -- 97
2019-12-06 04:00:00 1.2 2 Este 5 Sudeste 0 -- -- 96
2019-12-06 03:00:00 0.6 0 Calma 5 Sudeste 0 -- -- 97
2019-12-06 02:00:00 -0.7 2 Nordeste 8 Sudoeste 0 -- -- 98
2019-12-06 01:00:00 -0.7 3 Este 5 Sudeste 0 -- -- 98
2019-12-06 00:00:00 -0.7 0 Calma 5 Este 0 -- -- 97
2019-12-05 23:00:00 -0.7 0 Calma 4 Nordeste 0 -- -- 96
2019-12-05 22:00:00 0.4 0 Calma 6 Sudeste 0 -- -- 95
2019-12-05 21:00:00 0.6 3 Este 5 Sudeste 0 -- -- 95
2019-12-05 20:00:00 1.7 0 Calma 5 Sudeste 0 -- -- 91
2019-12-05 19:00:00 3.2 0 Calma 4 Sudeste 0 -- -- 87
2019-12-05 18:00:00 6.5 2 Norte 10 Sudoeste 0 -- -- 78
2019-12-05 17:00:00 9.2 4 Sudoeste 33 Este 0 -- -- 66
2019-12-05 16:00:00 11.4 19 Nordeste 41 Nordeste 0 -- -- 49
2019-12-05 15:00:00 11.8 6 Oeste 16 Sudoeste 0 -- -- 58
2019-12-05 14:00:00 10.1 4 Sudoeste 11 Sudoeste 0 -- -- 64
2019-12-05 13:00:00 10 3 Sudoeste 10 Sur 0 -- -- 61
2019-12-05 12:00:00 8.2 5 Sur 24 Sudoeste 0 -- -- 68
2019-12-05 11:00:00 6.9 4 Sudoeste 15 Sur 0 -- -- 72
2019-12-05 10:00:00 4.8 7 Sudoeste 15 Sudoeste 0 -- -- 81
2019-12-05 09:00:00 3.1 5 Oeste 14 Sudoeste 0 -- -- 89
2019-12-05 08:00:00 2.7 0 Calma 8 Este 0 -- -- 90
2019-12-05 07:00:00 2.3 0 Calma 8 Sudeste 0 -- -- 91
2019-12-05 06:00:00 2.6 3 Oeste 9 Sudoeste 0 -- -- 89
2019-12-05 05:00:00 2.5 0 Calma 6 Este 0 -- -- 89
2019-12-05 04:00:00 2.1 4 Norte 8 Oeste 0 -- -- 91
2019-12-05 03:00:00 1.9 5 Sudoeste 9 Noroeste 0 -- -- 91
2019-12-05 02:00:00 2.2 0 Calma 10 Sudoeste 0 -- -- 90
2019-12-05 01:00:00 2.4 5 Este 9 Sudeste 0 -- -- 88
2019-12-05 00:00:00 3 5 Oeste 12 Noroeste 0 -- -- 85
2019-12-04 23:00:00 2.5 7 Sudoeste 14 Oeste 0 -- -- 86
2019-12-04 22:00:00 1.8 3 Norte 9 Noroeste 0 -- -- 88
2019-12-04 21:00:00 2.8 3 Noroeste 12 Sudoeste 0 -- -- 85
2019-12-04 20:00:00 3.4 4 Sudeste 7 Sudeste 0 -- -- 82
2019-12-04 19:00:00 5.5 3 Nordeste 8 Sudoeste 0 -- -- 72
2019-12-04 18:00:00 5.6 6 Oeste 19 Sudoeste 0 -- -- 70
2019-12-04 17:00:00 7.1 11 Noroeste 33 Este 0 -- -- 63
2019-12-04 16:00:00 10.6 15 Nordeste 39 Este 0 -- -- 46
2019-12-04 15:00:00 9.1 9 Este 27 Este 0 -- -- 51
2019-12-04 14:00:00 5.2 10 Oeste 15 Sudoeste 0 -- -- 73
2019-12-04 13:00:00 4.2 4 Norte 7 Oeste 0 -- -- 78
2019-12-04 12:00:00 4 3 Noroeste 10 Este 0 -- -- 75
2019-12-04 11:00:00 1.4 4 Este 13 Sudoeste 0 -- -- 86
2019-12-04 10:00:00 -0.2 4 Este 9 Sudeste 0 -- -- 94
2019-12-04 09:00:00 -2.1 3 Oeste 9 Sudeste 0 -- -- 96
2019-12-04 08:00:00 -3.4 0 Calma 6 Oeste 0 -- -- 96
2019-12-04 07:00:00 -3.1 4 Este 9 Este 0 -- -- 96
2019-12-04 06:00:00 -3.1 3 Sudoeste 6 Oeste 0 -- -- 96
2019-12-04 05:00:00 -2.6 3 Este 10 Oeste 0 -- -- 95
2019-12-04 04:00:00 -2.2 3 Sudeste 6 Oeste 0 -- -- 94
2019-12-04 03:00:00 -2 0 Calma 5 Oeste 0 -- -- 92
2019-12-04 02:00:00 -1.5 2 Sudeste 6 Sudeste 0 -- -- 90
2019-12-04 01:00:00 -1.5 3 Este 9 Oeste 0 -- -- 89
2019-12-04 00:00:00 -2.4 0 Calma 5 Este 0 -- -- 92
2019-12-03 23:00:00 -2.4 0 Calma 4 Sudeste 0 -- -- 89
2019-12-03 22:00:00 -1.6 0 Calma 5 Oeste 0 -- -- 85
2019-12-03 21:00:00 -1.4 0 Calma 6 Oeste 0 -- -- 83
2019-12-03 20:00:00 -0.9 3 Este 5 Noroeste 0 -- -- 82
2019-12-03 19:00:00 -0.1 4 Este 8 Este 0 -- -- 77
2019-12-03 18:00:00 1 2 Sudeste 5 Sudeste 0 -- -- 73
2019-12-03 17:00:00 4.1 2 Oeste 11 Sudoeste 0 -- -- 60
2019-12-03 16:00:00 9.1 4 Sudeste 8 Sur 0 -- -- 42
2019-12-03 15:00:00 10.6 3 Sur 8 Sudoeste 0 -- -- 33
2019-12-03 14:00:00 8.1 4 Sudeste 8 Oeste 0 -- -- 37
2019-12-03 13:00:00 5.7 0 Calma 7 Oeste 0 -- -- 40
2019-12-03 12:00:00 3.3 3 Sur 5 Sudeste 0 -- -- 44
2019-12-03 11:00:00 0.5 0 Calma 6 Sudoeste 0 -- -- 69
2019-12-03 10:00:00 -4.6 2 Sudeste 5 Sudeste 0 -- -- 90
2019-12-03 09:00:00 -5.4 0 Calma 5 Nordeste 0 -- -- 91
2019-12-03 08:00:00 -5.8 0 Calma 6 Oeste 0 -- -- 93
2019-12-03 07:00:00 -5.5 2 Nordeste 6 Sudeste 0 -- -- 95
2019-12-03 06:00:00 -5.2 0 Calma 6 Sudeste 0 -- -- 92
2019-12-03 05:00:00 -4.9 4 Sudeste 6 Sudeste 0 -- -- 90
2019-12-03 04:00:00 -4.3 2 Este 8 Sudeste 0 -- -- 88
2019-12-03 03:00:00 -3.8 2 Norte 6 Sudeste 0 -- -- 90
2019-12-03 02:00:00 -3.7 2 Sudeste 4 Norte 0 -- -- 87
2019-12-03 01:00:00 -3.4 2 Este 5 Sudoeste 0 -- -- 87
2019-12-03 00:00:00 -2.6 3 Nordeste 5 Nordeste 0 -- -- 86
2019-12-02 23:00:00 -2.1 2 Sudeste 6 Sudeste 0 -- -- 83
2019-12-02 22:00:00 -0.6 0 Calma 12 Este 0 -- -- 77
2019-12-02 21:00:00 4.7 8 Nordeste 29 Norte 0 -- -- 51
2019-12-02 20:00:00 5.7 14 Nordeste 35 Este 0 -- -- 49
2019-12-02 19:00:00 5.3 11 Nordeste 35 Nordeste 0 -- -- 52
2019-12-02 18:00:00 6.1 17 Nordeste 33 Nordeste 0 -- -- 50
2019-12-02 17:00:00 6.4 16 Norte 32 Norte 0 -- -- 50
2019-12-02 16:00:00 8.9 14 Norte 31 Norte 0 -- -- 43
2019-12-02 15:00:00 10.1 12 Norte 26 Norte 0 -- -- 40
2019-12-02 14:00:00 9.1 12 Norte 29 Norte 0 -- -- 41
2019-12-02 13:00:00 8.8 13 Nordeste 28 Nordeste 0 -- -- 40
2019-12-02 12:00:00 8 13 Nordeste 25 Norte 0 -- -- 45
2019-12-02 11:00:00 5.4 9 Oeste 15 Oeste 0 -- -- 53
2019-12-02 10:00:00 0.6 9 Oeste 23 Sudoeste 0 -- -- 79
2019-12-02 09:00:00 3.4 9 Oeste 40 Nordeste 0 -- -- 61
2019-12-02 08:00:00 5.5 14 Este 46 Este 0 -- -- 53
2019-12-02 07:00:00 5.7 21 Este 47 Nordeste 0 -- -- 53
2019-12-02 06:00:00 5.3 17 Este 38 Nordeste 0 -- -- 52
2019-12-02 05:00:00 -1.2 4 Sudoeste 18 Sudoeste 0 -- -- 89
2019-12-02 04:00:00 -1.6 3 Oeste 16 Sudoeste 0 -- -- 91
2019-12-02 03:00:00 0.1 7 Sudoeste 18 Noroeste 0 -- -- 81
2019-12-02 02:00:00 -1.1 5 Sudoeste 12 Sudoeste 0 -- -- 88
2019-12-02 01:00:00 -2.1 2 Este 8 Este 0 -- -- 94
2019-12-02 00:00:00 -1.7 0 Calma 5 Este 0 -- -- 93
2019-12-01 23:00:00 -1 3 Este 9 Oeste 0 -- -- 90
2019-12-01 22:00:00 0.4 6 Sudoeste 19 Noroeste 0 -- -- 86
2019-12-01 21:00:00 0.9 4 Oeste 18 Sudoeste 0 -- -- 85
2019-12-01 20:00:00 0.8 5 Sudoeste 15 Oeste 0 -- -- 87
2019-12-01 19:00:00 3.8 8 Noroeste 23 Nordeste 0 -- -- 71
2019-12-01 18:00:00 5.5 6 Nordeste 21 Norte 0 -- -- 58
2019-12-01 17:00:00 6.3 8 Nordeste 22 Este 0 -- -- 58
2019-12-01 16:00:00 8.7 3 Sudeste 10 Oeste 0 -- -- 54
2019-12-01 15:00:00 4.9 0 Calma 8 Oeste 0 -- -- 89
2019-12-01 14:00:00 5.6 8 Sudoeste 10 Sudoeste 0 -- -- 79
2019-12-01 13:00:00 6.9 5 Sudoeste 10 Sudoeste 0 -- -- 70
2019-12-01 12:00:00 5.3 4 Sudeste 6 Sudeste 0 -- -- 75
2019-12-01 11:00:00 3.2 2 Sudeste 9 Sudoeste 0 -- -- 99
2019-12-01 10:00:00 0 0 Calma 4 Sudoeste 0 -- -- 100
2019-12-01 09:00:00 -0.2 2 Este 3 Sudeste 0 -- -- 99
2019-12-01 08:00:00 -0.1 0 Calma 9 Sudoeste 0 -- -- 99
2019-12-01 07:00:00 0.6 3 Este 5 Sudeste 0 -- -- 99
2019-12-01 06:00:00 2.3 2 Oeste 6 Sudoeste 0 -- -- 99
2019-12-01 05:00:00 1.9 2 Noroeste 12 Sudoeste 0 -- -- 99
2019-12-01 04:00:00 2 3 Sudeste 7 Sudeste 0 -- -- 97
2019-12-01 03:00:00 4 7 Sudoeste 14 Oeste 0.2 -- -- 96
2019-12-01 02:00:00 4.7 3 Sudoeste 7 Oeste 0.2 -- -- 95
2019-12-01 01:00:00 5 3 Norte 16 Sur 0.2 -- -- 93
2019-12-01 00:00:00 5.7 5 Sudeste 10 Este 0 -- -- 96
2019-11-30 23:00:00 6.8 3 Este 15 Sur 2 -- -- 93
2019-11-30 22:00:00 7.6 4 Sur 19 Sudoeste 3.4 -- -- 97
2019-11-30 21:00:00 5.7 2 Este 8 Sudeste 4.6 -- -- 99
2019-11-30 20:00:00 5.2 4 Sudoeste 11 Sudoeste 1.8 -- -- 98
2019-11-30 19:00:00 5.1 2 Sudeste 4 Sudeste 0.6 -- -- 97
2019-11-30 18:00:00 5.1 0 Calma 7 Sudoeste 0 -- -- 95
2019-11-30 17:00:00 6.7 3 Sur 12 Sudoeste 0 -- -- 79
2019-11-30 16:00:00 8.2 6 Sudoeste 10 Sudoeste 0 -- -- 63
2019-11-30 15:00:00 9.1 2 Sudoeste 13 Sudoeste 0 -- -- 59
2019-11-30 14:00:00 10.3 3 Sudoeste 6 Sudoeste 0 -- -- 52
2019-11-30 13:00:00 8.4 0 Calma 7 Oeste 0 -- -- 54
2019-11-30 12:00:00 7.3 3 Este 7 Sudoeste 0 -- -- 60
2019-11-30 11:00:00 4.6 0 Calma 8 Oeste 0 -- -- 77
2019-11-30 10:00:00 2.6 2 Sudeste 6 Este 0 -- -- 81
2019-11-30 09:00:00 0.3 2 Sudoeste 9 Sudoeste 0 -- -- 92
2019-11-30 08:00:00 -0.7 3 Norte 6 Sudoeste 0 -- -- 94
2019-11-30 07:00:00 -0.5 6 Sudoeste 12 Oeste 0 -- -- 93
2019-11-30 06:00:00 -1.3 2 Sudoeste 15 Sudoeste 0 -- -- 96
2019-11-30 05:00:00 -2 3 Oeste 9 Sudoeste 0 -- -- 96
2019-11-30 04:00:00 -1.1 3 Este 8 Este 0 -- -- 95
2019-11-30 03:00:00 -1.2 4 Oeste 10 Sudoeste 0 -- -- 95
2019-11-30 02:00:00 -0.8 2 Noroeste 6 Oeste 0 -- -- 97
2019-11-30 01:00:00 -0.4 0 Calma 5 Este 0 -- -- 97
2019-11-30 00:00:00 -0.2 3 Sudeste 6 Sudeste 0 -- -- 96
2019-11-29 23:00:00 -0.2 2 Sudoeste 5 Oeste 0 -- -- 97
2019-11-29 22:00:00 0.1 3 Este 5 Este 0 -- -- 96
2019-11-29 21:00:00 0.9 3 Este 5 Sudeste 0 -- -- 95
2019-11-29 20:00:00 1.8 2 Este 5 Sudeste 0 -- -- 92
2019-11-29 19:00:00 3.2 3 Sudeste 7 Norte 0 -- -- 84
2019-11-29 18:00:00 4.8 3 Sudeste 9 Norte 0 -- -- 77
2019-11-29 17:00:00 8.3 2 Nordeste 12 Norte 0 -- -- 68
2019-11-29 16:00:00 13.1 3 Sur 9 Sur 0 -- -- 65
2019-11-29 15:00:00 13.6 3 Sur 6 Sudeste 0 -- -- 59
2019-11-29 14:00:00 10.8 3 Sudeste 9 Sudoeste 0 -- -- 65
2019-11-29 13:00:00 9 3 Oeste 7 Oeste 0 -- -- 73
2019-11-29 12:00:00 6.9 4 Sudeste 8 Sudeste 0 -- -- 83
2019-11-29 11:00:00 5 3 Sudeste 8 Este 0 -- -- 100
2019-11-29 10:00:00 1.1 3 Noroeste 8 Sudoeste 0 -- -- 100
2019-11-29 09:00:00 0.5 2 Sudeste 5 Oeste 0 -- -- 100
2019-11-29 08:00:00 1.4 2 Oeste 5 Este 0 -- -- 100
2019-11-29 07:00:00 2.4 0 Calma 6 Este 0 -- -- 100
2019-11-29 06:00:00 2.2 0 Calma 7 Este 0 -- -- 100
2019-11-29 05:00:00 2 0 Calma 8 Oeste 0 -- -- 100
2019-11-29 04:00:00 2.9 2 Sudeste 5 Oeste 0 -- -- 99
2019-11-29 03:00:00 4.7 2 Nordeste 5 Nordeste 0 -- -- 100
2019-11-29 02:00:00 5.3 0 Calma 9 Oeste 0 -- -- 99
2019-11-29 01:00:00 5.7 2 Este 5 Sudeste 0 -- -- 99
2019-11-29 00:00:00 5.8 0 Calma 6 Oeste 0 -- -- 99
2019-11-28 23:00:00 5.9 2 Sudoeste 4 Oeste 0.2 -- -- 99
2019-11-28 22:00:00 6 2 Nordeste 5 Sudeste 0 -- -- 98
2019-11-28 21:00:00 6.4 0 Calma 8 Sudoeste 0 -- -- 98
2019-11-28 20:00:00 6.7 3 Sudoeste 6 Sur 0.6 -- -- 97
2019-11-28 19:00:00 7 2 Este 10 Oeste 0.8 -- -- 95
2019-11-28 18:00:00 7.9 2 Sur 10 Sudoeste 0 -- -- 85
2019-11-28 17:00:00 8.7 0 Calma 17 Sudoeste 0 -- -- 82
2019-11-28 16:00:00 9.7 7 Sudoeste 14 Oeste 0 -- -- 73
2019-11-28 15:00:00 10.2 5 Sudoeste 10 Sudoeste 0 -- -- 70
2019-11-28 14:00:00 9.7 3 Sudoeste 15 Sudoeste 0 -- -- 69
2019-11-28 13:00:00 8.8 3 Este 13 Sudoeste 0 -- -- 71
2019-11-28 12:00:00 7.6 5 Este 13 Sudoeste 0 -- -- 81
2019-11-28 11:00:00 5.6 2 Sur 6 Nordeste 0 -- -- 96
2019-11-28 10:00:00 3.8 4 Oeste 8 Oeste 0 -- -- 99
2019-11-28 09:00:00 3.2 2 Este 6 Este 0 -- -- 100
2019-11-28 08:00:00 3 5 Sudoeste 6 Oeste 0 -- -- 100
2019-11-28 07:00:00 2.6 0 Calma 5 Oeste 0 -- -- 99
2019-11-28 06:00:00 3 0 Calma 4 Sur 0 -- -- 99
2019-11-28 05:00:00 3.4 0 Calma 4 Sudeste 0 -- -- 99
2019-11-28 04:00:00 3.6 3 Sudeste 4 Sudeste 0 -- -- 99
2019-11-28 03:00:00 3.6 4 Sudoeste 9 Sudoeste 0 -- -- 99
2019-11-28 02:00:00 4 2 Oeste 5 Noroeste 0 -- -- 99
2019-11-28 01:00:00 4.3 3 Noroeste 4 Oeste 0.8 -- -- 98
2019-11-28 00:00:00 4.4 2 Sudoeste 5 Oeste 0.2 -- -- 97
2019-11-27 23:00:00 4.5 3 Sudeste 5 Oeste 0.2 -- -- 95
2019-11-27 22:00:00 4.9 2 Sudeste 3 Sur 0 -- -- 93
2019-11-27 21:00:00 5.7 0 Calma 7 Sur 0 -- -- 87
2019-11-27 20:00:00 5.7 2 Norte 6 Sudeste 0 -- -- 89
2019-11-27 19:00:00 6.1 2 Sudeste 8 Sudeste 0 -- -- 86
2019-11-27 18:00:00 6.1 0 Calma 18 Sudoeste 0 -- -- 84
2019-11-27 17:00:00 8.2 11 Oeste 23 Oeste 0 -- -- 72
2019-11-27 16:00:00 9.2 11 Sudoeste 19 Sudoeste 0 -- -- 69
2019-11-27 15:00:00 10 9 Sudoeste 17 Sudoeste 0 -- -- 64
2019-11-27 14:00:00 10 3 Este 13 Oeste 0 -- -- 61
2019-11-27 06:00:00 -- -- -- -- -- -- -- -- --
2019-11-27 05:00:00 6.7 5 Sur 18 Sudoeste 0.2 -- -- 95
2019-11-27 04:00:00 6.8 4 Sudeste 10 Noroeste 0.8 -- -- 97
2019-11-27 03:00:00 7.9 5 Sudeste 17 Oeste 1.6 -- -- 97
2019-11-27 02:00:00 7.6 4 Sudoeste 8 Oeste 0.6 -- -- 98
2019-11-27 01:00:00 8.6 5 Sudoeste 16 Oeste 0.2 -- -- 93
2019-11-27 00:00:00 9 3 Sur 23 Sudoeste 0.4 -- -- 92
2019-11-26 23:00:00 9.4 8 Sudoeste 23 Oeste 0.4 -- -- 89
2019-11-26 22:00:00 6.8 3 Norte 8 Sudoeste 0 -- -- 94
2019-11-26 21:00:00 6.8 2 Nordeste 7 Noroeste 0 -- -- 91
2019-11-26 20:00:00 6.4 0 Calma 9 Oeste 0 -- -- 86
2019-11-26 19:00:00 6.3 4 Sudoeste 8 Sudoeste 0 -- -- 84
2019-11-26 18:00:00 5.4 2 Sudoeste 5 Sudeste 0 -- -- 85
2019-11-26 17:00:00 9.7 0 Calma 9 Sudoeste 0 -- -- 69
2019-11-26 16:00:00 10.9 6 Oeste 11 Oeste 0 -- -- 60
2019-11-26 15:00:00 12.6 4 Oeste 10 Sudoeste 0 -- -- 51
2019-11-26 14:00:00 11.1 4 Sudoeste 21 Oeste 0 -- -- 53
2019-11-26 13:00:00 10.5 3 Sudoeste 9 Sudoeste 0 -- -- 50
2019-11-26 12:00:00 7.7 4 Sudeste 7 Sudeste 0 -- -- 53
2019-11-26 11:00:00 5.3 0 Calma 8 Este 0 -- -- 70
2019-11-26 10:00:00 -0.1 0 Calma 10 Oeste 0 -- -- 95
2019-11-26 09:00:00 -0.3 2 Sudeste 8 Oeste 0 -- -- 96
2019-11-26 08:00:00 -1.8 0 Calma 10 Oeste 0 -- -- 98
2019-11-26 07:00:00 -2.3 2 Sur 9 Oeste 0 -- -- 97
2019-11-26 06:00:00 -1.9 5 Este 8 Nordeste 0 -- -- 97
2019-11-26 05:00:00 -1.5 5 Este 8 Sudeste 0 -- -- 98
2019-11-26 04:00:00 -1.7 3 Este 6 Sudeste 0 -- -- 98
2019-11-26 03:00:00 -1.2 2 Este 6 Sudeste 0 -- -- 98
2019-11-26 02:00:00 -1 3 Oeste 8 Oeste 0 -- -- 96
2019-11-26 01:00:00 -0.7 2 Sur 8 Sudoeste 0 -- -- 96
2019-11-26 00:00:00 -0.3 4 Oeste 5 Oeste 0 -- -- 97
2019-11-25 23:00:00 -0.3 0 Calma 5 Sudeste 0 -- -- 97
2019-11-25 22:00:00 0.3 2 Este 5 Nordeste 0 -- -- 95
2019-11-25 21:00:00 0.7 0 Calma 5 Oeste 0 -- -- 94
2019-11-25 20:00:00 2.5 4 Sudoeste 8 Sudoeste 0 -- -- 88
2019-11-25 19:00:00 3.9 3 Sudeste 5 Este 0 -- -- 84
2019-11-25 18:00:00 5.8 3 Sudeste 8 Norte 0 -- -- 76
2019-11-25 17:00:00 9.2 4 Norte 10 Nordeste 0 -- -- 65
2019-11-25 16:00:00 12.8 5 Sudoeste 11 Oeste 0 -- -- 53
2019-11-25 15:00:00 13.4 7 Sudoeste 12 Oeste 0 -- -- 50
2019-11-25 14:00:00 12.1 9 Sudoeste 16 Sudoeste 0 -- -- 54
2019-11-25 13:00:00 9.9 4 Sudoeste 9 Oeste 0 -- -- 55
2019-11-25 12:00:00 7.2 2 Sur 7 Oeste 0 -- -- 65
2019-11-25 11:00:00 5.1 3 Sudeste 6 Sudeste 0 -- -- 73
2019-11-25 10:00:00 -0.5 3 Sudeste 5 Sur 0 -- -- 92
2019-11-25 09:00:00 -2.3 0 Calma 6 Sudeste 0 -- -- 96
2019-11-25 08:00:00 -3 2 Nordeste 8 Oeste 0 -- -- 96
2019-11-25 07:00:00 -2.7 3 Nordeste 7 Sudeste 0 -- -- 95
2019-11-25 06:00:00 -2.5 3 Sudeste 7 Sudeste 0 -- -- 95
2019-11-25 05:00:00 -1.8 3 Sudeste 10 Sudoeste 0 -- -- 90
2019-11-25 04:00:00 -1.2 5 Noroeste 11 Oeste 0 -- -- 91
2019-11-25 03:00:00 -0.7 4 Este 11 Oeste 0 -- -- 90
2019-11-25 02:00:00 0 3 Nordeste 10 Sudoeste 0 -- -- 87
2019-11-25 01:00:00 0.6 3 Sudeste 8 Sudoeste 0 -- -- 84
2019-11-25 00:00:00 0.9 2 Este 9 Oeste 0 -- -- 83
2019-11-24 23:00:00 0.6 5 Sudoeste 10 Sudoeste 0 -- -- 84
2019-11-24 22:00:00 -0.1 0 Calma 7 Sudoeste 0 -- -- 85
2019-11-24 21:00:00 1.1 3 Este 8 Nordeste 0 -- -- 79
2019-11-24 20:00:00 2.4 3 Este 11 Sudoeste 0 -- -- 78
2019-11-24 19:00:00 3.6 2 Nordeste 12 Norte 0 -- -- 74
2019-11-24 18:00:00 4.4 3 Nordeste 10 Norte 0 -- -- 64
2019-11-24 17:00:00 8.3 6 Nordeste 22 Nordeste 0 -- -- 47
2019-11-24 16:00:00 9.8 14 Nordeste 31 Nordeste 0 -- -- 42
2019-11-24 15:00:00 9.6 17 Nordeste 40 Este 0 -- -- 43
2019-11-24 14:00:00 9.1 22 Nordeste 45 Nordeste 0 -- -- 45
2019-11-24 13:00:00 9.1 28 Este 48 Este 0 -- -- 48
2019-11-24 12:00:00 9 19 Nordeste 49 Este 0 -- -- 45
2019-11-24 11:00:00 8.4 14 Este 45 Este 0 -- -- 46
2019-11-24 10:00:00 7.2 20 Este 47 Nordeste 0 -- -- 50
2019-11-24 09:00:00 7 22 Este 45 Nordeste 0 -- -- 50
2019-11-24 08:00:00 6.7 22 Nordeste 52 Este 0 -- -- 50
2019-11-24 07:00:00 6.6 26 Nordeste 59 Nordeste 0 -- -- 47
2019-11-24 06:00:00 6.8 23 Este 66 Nordeste 0 -- -- 43
2019-11-24 05:00:00 6.1 19 Nordeste 44 Nordeste 0 -- -- 50
2019-11-24 04:00:00 6 18 Este 37 Este 0 -- -- 51
2019-11-24 03:00:00 6.4 19 Nordeste 47 Este 0 -- -- 53
2019-11-24 02:00:00 6.7 18 Nordeste 54 Este 0 -- -- 49
2019-11-24 01:00:00 6.7 23 Este 58 Nordeste 0 -- -- 48
2019-11-24 00:00:00 6.7 25 Este 51 Este 0 -- -- 48
2019-11-23 23:00:00 6.4 23 Este 53 Nordeste 0 -- -- 44
2019-11-23 22:00:00 6.1 24 Nordeste 57 Este 0 -- -- 40
2019-11-23 21:00:00 6 27 Nordeste 58 Nordeste 0 -- -- 43
2019-11-23 20:00:00 5.8 19 Este 44 Este 0.2 -- -- 49
2019-11-23 19:00:00 4.1 6 Sur 23 Nordeste 0 -- -- 58
2019-11-23 18:00:00 3.5 2 Este 9 Sudoeste 0 -- -- 98
2019-11-23 17:00:00 4.6 7 Sudoeste 15 Sudoeste 0 -- -- 95
2019-11-23 16:00:00 4.8 3 Sur 8 Sudoeste 0.2 -- -- 94
2019-11-23 15:00:00 5.1 0 Calma 5 Sudoeste 0.6 -- -- 91
2019-11-23 14:00:00 5.5 2 Sudoeste 6 Sudoeste 0.4 -- -- 88
2019-11-23 13:00:00 5.5 0 Calma 6 Sudoeste 0.4 -- -- 87
2019-11-23 12:00:00 5.8 4 Sudoeste 6 Oeste 0.2 -- -- 92
2019-11-23 11:00:00 4.9 0 Calma 6 Este 0.2 -- -- 97
2019-11-23 10:00:00 4.2 2 Nordeste 5 Este 0 -- -- 99
2019-11-23 09:00:00 3.3 5 Sudoeste 8 Oeste 0 -- -- 100
2019-11-23 08:00:00 2.8 2 Norte 6 Sudoeste 0 -- -- 100
2019-11-23 07:00:00 2.6 2 Nordeste 4 Oeste 0 -- -- 100
2019-11-23 06:00:00 2.5 0 Calma 6 Noroeste 0.4 -- -- 100
2019-11-23 05:00:00 2.7 3 Este 5 Sudeste 0 -- -- 100
2019-11-23 04:00:00 2.5 0 Calma 4 Norte 0.2 -- -- 99
2019-11-23 03:00:00 2.7 2 Este 5 Sudeste 0 -- -- 99
2019-11-23 02:00:00 3.2 2 Este 7 Este 0.8 -- -- 99
2019-11-23 01:00:00 3.7 3 Sudeste 11 Oeste 2.6 -- -- 100
2019-11-23 00:00:00 1.6 5 Oeste 13 Sudoeste 1.8 -- -- 99
2019-11-22 23:00:00 1.2 2 Este 8 Oeste 3.2 -- -- 99
2019-11-22 22:00:00 1 2 Este 8 Sudeste 3 -- -- 99
2019-11-22 21:00:00 1 4 Sudeste 7 Nordeste 2.8 -- -- 98
2019-11-22 20:00:00 1.7 4 Este 8 Nordeste 4.6 -- -- 97
2019-11-22 19:00:00 2.7 0 Calma 12 Sudeste 4.6 -- -- 96
2019-11-22 18:00:00 3.6 4 Este 18 Sur 2.6 -- -- 94
2019-11-22 17:00:00 3.6 6 Sur 26 Sudoeste 1.8 -- -- 94
2019-11-22 16:00:00 4.6 11 Sudoeste 38 Oeste 1.2 -- -- 87
2019-11-22 15:00:00 5.1 22 Oeste 35 Sudoeste 0.6 -- -- 84
2019-11-22 14:00:00 5.1 14 Sudoeste 34 Oeste 0.4 -- -- 82
2019-11-22 13:00:00 5.4 18 Oeste 33 Sudoeste 0.2 -- -- 81
2019-11-22 12:00:00 5.1 5 Sudoeste 12 Sur 0 -- -- 82
2019-11-22 11:00:00 4.2 2 Norte 5 Oeste 0 -- -- 82
2019-11-22 10:00:00 1.9 0 Calma 4 Sudeste 0 -- -- 92
2019-11-22 09:00:00 0.9 2 Oeste 7 Sudoeste 0 -- -- 95
2019-11-22 08:00:00 0.4 3 Sur 8 Oeste 0 -- -- 96
2019-11-22 07:00:00 0.4 0 Calma 3 Norte 0 -- -- 95
2019-11-22 06:00:00 0.1 0 Calma 5 Oeste 0 -- -- 96
2019-11-22 05:00:00 0 2 Nordeste 7 Oeste 0 -- -- 96
2019-11-22 04:00:00 -0.1 0 Calma 4 Este 0 -- -- 96
2019-11-22 03:00:00 -0.3 0 Calma 5 Sudoeste 0 -- -- 96
2019-11-22 02:00:00 -0.3 3 Oeste 6 Este 0 -- -- 95
2019-11-22 01:00:00 0.3 0 Calma 4 Oeste 0 -- -- 94
2019-11-22 00:00:00 0.3 0 Calma 4 Sudeste 0 -- -- 93
2019-11-21 23:00:00 1 2 Oeste 4 Sur 0 -- -- 92
2019-11-21 22:00:00 0.7 3 Sudeste 6 Oeste 0 -- -- 91
2019-11-21 21:00:00 1 2 Este 5 Noroeste 0 -- -- 91
2019-11-21 20:00:00 1 3 Este 5 Sudeste 0 -- -- 88
2019-11-21 19:00:00 2 2 Sudeste 6 Sudeste 0 -- -- 86
2019-11-21 18:00:00 3.3 4 Sudeste 10 Sudoeste 0 -- -- 78
2019-11-21 17:00:00 5.6 3 Sur 23 Oeste 0 -- -- 66
2019-11-21 16:00:00 7 10 Sudoeste 18 Sudoeste 0 -- -- 58
2019-11-21 15:00:00 7.5 9 Sur 25 Sudeste 0 -- -- 53
2019-11-21 14:00:00 6.9 5 Este 13 Sudoeste 0 -- -- 55
2019-11-21 13:00:00 6.9 5 Sudoeste 14 Sudoeste 0 -- -- 59
2019-11-21 12:00:00 5.7 3 Sudoeste 9 Oeste 0 -- -- 58
2019-11-21 11:00:00 3.6 3 Norte 7 Sudeste 0 -- -- 58
2019-11-21 10:00:00 0.7 3 Nordeste 8 Sudoeste 0 -- -- 74
2019-11-21 09:00:00 -0.8 3 Norte 8 Sudoeste 0 -- -- 83
2019-11-21 08:00:00 -1.7 3 Este 6 Este 0 -- -- 84
2019-11-21 07:00:00 -1.4 0 Calma 5 Oeste 0 -- -- 86
2019-11-21 06:00:00 -1.4 0 Calma 4 Oeste 0 -- -- 84
2019-11-21 05:00:00 -2 0 Calma 4 Oeste 0 -- -- 86
2019-11-21 04:00:00 -2.8 2 Este 5 Este 0 -- -- 87
2019-11-21 03:00:00 -1.9 3 Sudeste 9 Oeste 0 -- -- 86
2019-11-21 02:00:00 -2.3 2 Norte 7 Oeste 0 -- -- 87
2019-11-21 01:00:00 -3.3 2 Este 4 Sudeste 0 -- -- 90
2019-11-21 00:00:00 -4.9 0 Calma 4 Oeste 0 -- -- 91
2019-11-20 23:00:00 -4.2 2 Sudeste 4 Oeste 0 -- -- 88
2019-11-20 22:00:00 -3.6 2 Este 6 Sudoeste 0 -- -- 88
2019-11-20 21:00:00 -3.2 0 Calma 3 Sudeste 0 -- -- 87
2019-11-20 20:00:00 -1.8 2 Sudeste 6 Sudeste 0 -- -- 82
2019-11-20 19:00:00 -1.5 2 Nordeste 5 Este 0 -- -- 83
2019-11-20 18:00:00 0.3 2 Este 6 Sur 0 -- -- 75
2019-11-20 17:00:00 4.3 3 Sur 9 Sudoeste 0 -- -- 54
2019-11-20 16:00:00 5.8 3 Sur 13 Sudoeste 0 -- -- 48
2019-11-20 15:00:00 8.2 4 Sudoeste 11 Sudoeste 0 -- -- 34
2019-11-20 14:00:00 5.9 7 Sudoeste 13 Sudoeste 0 -- -- 45
2019-11-20 13:00:00 4.2 3 Sur 6 Sudoeste 0 -- -- 46
2019-11-20 12:00:00 3 3 Este 6 Este 0 -- -- 53
2019-11-20 11:00:00 1.2 0 Calma 5 Sudoeste 0 -- -- 58
2019-11-20 10:00:00 -2.9 3 Sudoeste 5 Sudoeste 0 -- -- 82
2019-11-20 09:00:00 -5.9 2 Oeste 4 Este 0 -- -- 90
2019-11-20 08:00:00 -7.2 0 Calma 5 Nordeste 0 -- -- 92
2019-11-20 07:00:00 -7.1 0 Calma 4 Nordeste 0 -- -- 92
2019-11-20 06:00:00 -6.4 2 Sudeste 4 Este 0 -- -- 90
2019-11-20 05:00:00 -6.6 0 Calma 3 Este 0 -- -- 90
2019-11-20 04:00:00 -6.1 2 Nordeste 4 Sudeste 0 -- -- 92
2019-11-20 03:00:00 -6.3 0 Calma 4 Sudeste 0 -- -- 92
2019-11-20 02:00:00 -6 3 Este 5 Sudeste 0 -- -- 91
2019-11-20 01:00:00 -5.8 2 Este 4 Sudeste 0 -- -- 90
2019-11-20 00:00:00 -5.3 2 Sudeste 5 Sudeste 0 -- -- 87
2019-11-19 23:00:00 -5 0 Calma 6 Sudeste 0 -- -- 89
2019-11-19 22:00:00 -4.4 0 Calma 4 Este 0 -- -- 85
2019-11-19 21:00:00 -3.8 3 Sudeste 6 Oeste 0 -- -- 82
2019-11-19 20:00:00 -3.4 2 Sudeste 8 Oeste 0 -- -- 80
2019-11-19 19:00:00 -1.5 3 Sudeste 6 Oeste 0 -- -- 75
2019-11-19 18:00:00 0.2 2 Sur 8 Norte 0 -- -- 67
2019-11-19 17:00:00 3.6 2 Oeste 9 Sur 0 -- -- 55
2019-11-19 16:00:00 9.7 3 Sur 14 Sudoeste 0 -- -- 33
2019-11-19 15:00:00 9.7 8 Sudoeste 12 Sudoeste 0 -- -- 29
2019-11-19 14:00:00 8.2 4 Oeste 14 Sudoeste 0 -- -- 34
2019-11-19 13:00:00 5.9 2 Oeste 8 Sudeste 0 -- -- 33
2019-11-19 12:00:00 4.2 3 Sudeste 13 Sudoeste 0 -- -- 39
2019-11-19 11:00:00 2.7 3 Sudeste 6 Sudoeste 0 -- -- 48
2019-11-19 10:00:00 -3.1 3 Sur 7 Sudeste 0 -- -- 73
2019-11-19 09:00:00 -6.3 3 Sur 6 Este 0 -- -- 86
2019-11-19 08:00:00 -6.5 2 Sudeste 9 Nordeste 0 -- -- 86
2019-11-19 07:00:00 -7 3 Este 6 Sudoeste 0 -- -- 87
2019-11-19 06:00:00 -6.2 0 Calma 6 Este 0 -- -- 84
2019-11-19 05:00:00 -6.1 2 Sudeste 6 Este 0 -- -- 84
2019-11-19 04:00:00 -5.6 3 Nordeste 5 Este 0 -- -- 84
2019-11-19 03:00:00 -5.1 2 Nordeste 6 Sudeste 0 -- -- 82
2019-11-19 02:00:00 -4.1 0 Calma 10 Sudoeste 0 -- -- 75
2019-11-19 01:00:00 -2.4 4 Este 20 Este 0 -- -- 64
2019-11-19 00:00:00 1.2 7 Oeste 19 Nordeste 0 -- -- 45
2019-11-18 23:00:00 3.8 9 Nordeste 31 Nordeste 0 -- -- 28
2019-11-18 22:00:00 3.6 11 Nordeste 30 Nordeste 0 -- -- 31
2019-11-18 21:00:00 2.2 14 Norte 28 Norte 0 -- -- 44
2019-11-18 20:00:00 0.4 4 Noroeste 15 Noroeste 0 -- -- 49
2019-11-18 19:00:00 1.6 7 Nordeste 31 Nordeste 0 -- -- 47
2019-11-18 18:00:00 3.3 18 Nordeste 46 Este 0 -- -- 43
2019-11-18 17:00:00 5.1 14 Nordeste 30 Nordeste 0 -- -- 32
2019-11-18 16:00:00 7 13 Nordeste 34 Este 0 -- -- 26
2019-11-18 15:00:00 7.1 19 Nordeste 35 Este 0 -- -- 26
2019-11-18 14:00:00 8 10 Nordeste 22 Norte 0 -- -- 32
2019-11-18 13:00:00 6.5 10 Nordeste 46 Este 0 -- -- 48
2019-11-18 12:00:00 5.5 21 Este 45 Este 0 -- -- 53
2019-11-18 11:00:00 5.2 18 Nordeste 38 Este 0 -- -- 53
2019-11-18 10:00:00 4.2 19 Nordeste 46 Este 0 -- -- 57
2019-11-18 09:00:00 3.8 19 Nordeste 49 Nordeste 0 -- -- 62
2019-11-18 08:00:00 -2.2 8 Oeste 21 Oeste 0 -- -- 98
2019-11-18 07:00:00 -1.9 4 Oeste 9 Oeste 0 -- -- 98
2019-11-18 06:00:00 -1.8 3 Norte 4 Noroeste 0 -- -- 99
2019-11-18 05:00:00 -2.1 2 Norte 5 Oeste 0 -- -- 99
2019-11-18 04:00:00 -1.8 2 Norte 4 Sudeste 0 -- -- 98
2019-11-18 03:00:00 -1.7 4 Norte 10 Sudoeste 0 -- -- 99
2019-11-18 02:00:00 -2.3 2 Este 6 Sudeste 0 -- -- 98
2019-11-18 01:00:00 -2 2 Sudeste 4 Sudeste 0 -- -- 99
2019-11-18 00:00:00 -1.9 0 Calma 5 Sudeste 0 -- -- 98
2019-11-17 23:00:00 -1 0 Calma 5 Sudoeste 0 -- -- 97
2019-11-17 22:00:00 0.2 2 Sur 8 Sudoeste 0 -- -- 95
2019-11-17 21:00:00 0.2 0 Calma 4 Sudeste 0 -- -- 96
2019-11-17 20:00:00 -0.5 0 Calma 6 Oeste 0 -- -- 97
2019-11-17 19:00:00 -1 2 Sudeste 5 Sudeste 0 -- -- 94
2019-11-17 18:00:00 0 0 Calma 4 Sudeste 0 -- -- 92
2019-11-17 17:00:00 4.1 0 Calma 13 Oeste 0 -- -- 76
2019-11-17 16:00:00 7.2 3 Sudoeste 14 Sudoeste 0 -- -- 59
2019-11-17 15:00:00 7.2 4 Sudoeste 10 Sudoeste 0 -- -- 56
2019-11-17 14:00:00 5.9 0 Calma 8 Sudoeste 0 -- -- 58
2019-11-17 13:00:00 3.5 4 Sudoeste 10 Sudoeste 0 -- -- 69
2019-11-17 12:00:00 2.7 3 Oeste 6 Sudoeste 0 -- -- 74
2019-11-17 11:00:00 1.1 6 Oeste 11 Sudoeste 0 -- -- 81
2019-11-17 10:00:00 -2.2 3 Sudoeste 6 Este 0 -- -- 92
2019-11-17 09:00:00 -5 5 Sudoeste 9 Oeste 0 -- -- 98
2019-11-17 08:00:00 -4.7 5 Oeste 9 Este 0 -- -- 97
2019-11-17 07:00:00 -3.8 3 Noroeste 9 Sudoeste 0 -- -- 96
2019-11-17 06:00:00 -3.7 3 Sudoeste 8 Este 0 -- -- 96
2019-11-17 05:00:00 -4.1 2 Sudeste 10 Oeste 0 -- -- 96
2019-11-17 04:00:00 -3.8 3 Nordeste 6 Este 0 -- -- 96
2019-11-17 03:00:00 -3.8 2 Oeste 10 Sudoeste 0 -- -- 96
2019-11-17 02:00:00 -3.6 3 Nordeste 7 Sudeste 0 -- -- 95
2019-11-17 01:00:00 -3.9 3 Sudoeste 6 Oeste 0 -- -- 97
2019-11-17 00:00:00 -4.6 2 Norte 7 Sudoeste 0 -- -- 97
2019-11-16 23:00:00 -4.2 5 Este 10 Norte 0 -- -- 97
2019-11-16 22:00:00 -3.8 3 Noroeste 7 Sudoeste 0 -- -- 96
2019-11-16 21:00:00 -4 2 Sudeste 5 Sudeste 0 -- -- 94
2019-11-16 20:00:00 -2.7 2 Sudeste 5 Sudeste 0 -- -- 92
2019-11-16 19:00:00 -2.2 3 Sudeste 4 Sudeste 0 -- -- 92
2019-11-16 18:00:00 -1.3 2 Sudeste 4 Sudeste 0 -- -- 89
2019-11-16 17:00:00 1.1 2 Sudoeste 6 Sudoeste 0 -- -- 74
2019-11-16 16:00:00 2.2 3 Oeste 7 Oeste 0 -- -- 62
2019-11-16 15:00:00 3.2 0 Calma 4 Oeste 0 -- -- 59
2019-11-16 14:00:00 2.9 0 Calma 7 Oeste 0 -- -- 56
2019-11-16 13:00:00 2 2 Este 4 Sudeste 0 -- -- 58
2019-11-16 12:00:00 -0.1 0 Calma 5 Sudoeste 0 -- -- 75
2019-11-16 11:00:00 -1.5 2 Este 5 Oeste 0 -- -- 81
2019-11-16 10:00:00 -4.5 2 Oeste 5 Oeste 0 -- -- 95
2019-11-16 09:00:00 -8.7 3 Sur 6 Sudeste 0 -- -- 94
2019-11-16 08:00:00 -9.3 3 Oeste 6 Sudoeste 0 -- -- 93
2019-11-16 07:00:00 -8.6 2 Este 6 Oeste 0 -- -- 95
2019-11-16 06:00:00 -8.7 3 Este 6 Sudeste 0 -- -- 96
2019-11-16 05:00:00 -8.7 2 Este 5 Este 0 -- -- 94
2019-11-16 04:00:00 -8.2 2 Este 6 Sur 0 -- -- 95
2019-11-16 03:00:00 -7.9 3 Este 5 Sudeste 0 -- -- 95
2019-11-16 02:00:00 -7.2 0 Calma 6 Sudeste 0 -- -- 96
2019-11-16 01:00:00 -7.1 0 Calma 5 Sudeste 0 -- -- 95
2019-11-16 00:00:00 -5.8 0 Calma 6 Sudoeste 0 -- -- 97
2019-11-15 23:00:00 -5 0 Calma 6 Sudeste 0 -- -- 96
2019-11-15 22:00:00 -4.9 3 Este 8 Oeste 0 -- -- 96
2019-11-15 21:00:00 -3.1 3 Sudeste 6 Sudeste 0 -- -- 98
2019-11-15 20:00:00 -1.9 2 Nordeste 10 Oeste 0 -- -- 98
2019-11-15 19:00:00 -2.4 2 Norte 5 Norte 0 -- -- 98
2019-11-15 18:00:00 -1.7 2 Sudeste 4 Sudeste 0 -- -- 97
2019-11-15 17:00:00 0.3 0 Calma 5 Oeste 0.8 -- -- 94
2019-11-15 16:00:00 0.7 0 Calma 6 Oeste 0 -- -- 89
2019-11-15 15:00:00 0.9 4 Oeste 17 Sudoeste 0 -- -- 87
2019-11-15 14:00:00 1.4 10 Sudoeste 17 Sudoeste 0 -- -- 78
2019-11-15 13:00:00 2.9 0 Calma 13 Sudoeste 0 -- -- 65
2019-11-15 12:00:00 1.3 3 Oeste 6 Sudoeste 0 -- -- 65
2019-11-15 11:00:00 -0.1 0 Calma 5 Sudoeste 0 -- -- 68
2019-11-15 10:00:00 -2.7 4 Sudeste 5 Sudeste 0 -- -- 83
2019-11-15 09:00:00 -5.1 3 Este 6 Sudeste 0 -- -- 93
2019-11-15 08:00:00 -6.5 3 Nordeste 5 Noroeste 0 -- -- 95
2019-11-15 07:00:00 -6.8 0 Calma 8 Sudeste 0 -- -- 96
2019-11-15 06:00:00 -7.4 3 Nordeste 6 Sudeste 0 -- -- 96
2019-11-15 05:00:00 -6.6 4 Sudeste 8 Sudoeste 0 -- -- 95
2019-11-15 04:00:00 -6.6 3 Este 7 Oeste 0 -- -- 93
2019-11-15 03:00:00 -6.2 2 Sudoeste 5 Sudeste 0 -- -- 96
2019-11-15 02:00:00 -5.5 2 Sur 5 Sudeste 0 -- -- 94
2019-11-15 01:00:00 -4.9 2 Nordeste 9 Norte 0 -- -- 92
2019-11-15 00:00:00 -3.8 3 Nordeste 12 Sudoeste 0 -- -- 90
2019-11-14 23:00:00 -2.9 5 Sudoeste 12 Nordeste 0 -- -- 85
2019-11-14 22:00:00 -2.3 2 Sudoeste 7 Noroeste 0 -- -- 87
2019-11-14 21:00:00 -2.5 3 Nordeste 8 Oeste 0 -- -- 91
2019-11-14 20:00:00 -2 4 Norte 9 Noroeste 0 -- -- 91
2019-11-14 19:00:00 -1.1 3 Sudeste 5 Este 0 -- -- 98
2019-11-14 18:00:00 -0.4 5 Sudoeste 6 Oeste 0 -- -- 96
2019-11-14 17:00:00 1.2 3 Sudeste 4 Sudeste 0 -- -- 90
2019-11-14 16:00:00 2.7 2 Sudoeste 9 Sudoeste 0 -- -- 83
2019-11-14 15:00:00 3.1 2 Sur 14 Noroeste 0 -- -- 81
2019-11-14 14:00:00 4.8 0 Calma 5 Norte 0 -- -- 74
2019-11-14 13:00:00 2.3 2 Sudoeste 10 Sudoeste 0 -- -- 90
2019-11-14 12:00:00 1.8 2 Nordeste 25 Nordeste 0 -- -- 92
2019-11-14 11:00:00 0.6 0 Calma 9 Nordeste 0.4 -- -- 98
2019-11-14 10:00:00 0.3 3 Nordeste 22 Este 0.6 -- -- 97
2019-11-14 09:00:00 0.3 11 Nordeste 26 Nordeste 1 -- -- 97
2019-11-14 08:00:00 0 0 Calma 4 Sudeste 1.4 -- -- 99
2019-11-14 07:00:00 0 0 Calma 3 Sudeste 0.8 -- -- 98
2019-11-14 06:00:00 0 0 Calma 3 Sudoeste 1.6 -- -- 98
2019-11-14 05:00:00 -0.1 0 Calma 4 Este 1.6 -- -- 97
2019-11-14 04:00:00 -0.9 0 Calma 5 Este 1.4 -- -- 95
2019-11-14 03:00:00 -1 2 Sur 6 Oeste 0.4 -- -- 90
2019-11-14 02:00:00 0.2 0 Calma 6 Noroeste 0 -- -- 74
2019-11-14 01:00:00 -0.7 2 Sudoeste 9 Sudoeste 0 -- -- 80
2019-11-14 00:00:00 -1.9 3 Sudeste 18 Oeste 0 -- -- 80
2019-11-13 23:00:00 -1.8 3 Nordeste 8 Sudeste 0 -- -- 78
2019-11-13 22:00:00 -2.1 4 Sudoeste 7 Sudoeste 0 -- -- 79
2019-11-13 21:00:00 -2 2 Sudeste 6 Sudeste 0 -- -- 76
2019-11-13 20:00:00 -0.6 2 Este 12 Oeste 0 -- -- 69
2019-11-13 19:00:00 0.1 4 Sur 8 Sudoeste 0 -- -- 65
2019-11-13 18:00:00 2.9 2 Este 11 Norte 0 -- -- 54
2019-11-13 17:00:00 8.3 6 Norte 23 Este 0 -- -- 30
2019-11-13 16:00:00 10.6 10 Nordeste 30 Norte 0 -- -- 25
2019-11-13 15:00:00 10.4 13 Nordeste 41 Este 0 -- -- 30
2019-11-13 14:00:00 10.8 14 Nordeste 40 Nordeste 0 -- -- 26
2019-11-13 13:00:00 9.8 19 Nordeste 42 Este 0 -- -- 30
2019-11-13 12:00:00 9.4 19 Nordeste 38 Nordeste 0 -- -- 36
2019-11-13 11:00:00 5.6 8 Sudoeste 16 Sudoeste 0 -- -- 66
2019-11-13 10:00:00 2.2 3 Norte 17 Sudoeste 0 -- -- 82
2019-11-13 09:00:00 0.7 6 Noroeste 14 Sudoeste 0 -- -- 87
2019-11-13 08:00:00 -0.7 0 Calma 8 Oeste 0 -- -- 92
2019-11-13 07:00:00 -1.4 3 Este 5 Sudeste 0 -- -- 94
2019-11-13 06:00:00 -2 2 Oeste 8 Sudoeste 0 -- -- 95
2019-11-13 05:00:00 -2 2 Sudoeste 5 Oeste 0 -- -- 94
2019-11-13 04:00:00 -2.3 4 Nordeste 11 Sudoeste 0 -- -- 94
2019-11-13 03:00:00 -2.2 4 Sudoeste 8 Oeste 0 -- -- 94
2019-11-13 02:00:00 -2.1 4 Nordeste 7 Este 0 -- -- 95
2019-11-13 01:00:00 -1.7 2 Sur 6 Sudeste 0 -- -- 93
2019-11-13 00:00:00 -1.1 2 Sudeste 5 Sudoeste 0 -- -- 91
2019-11-12 23:00:00 0.8 3 Este 6 Este 0 -- -- 88
2019-11-12 22:00:00 0.3 0 Calma 4 Sudeste 0 -- -- 87
2019-11-12 21:00:00 1.3 0 Calma 6 Sudeste 0 -- -- 80
2019-11-12 20:00:00 3.9 5 Oeste 23 Este 0 -- -- 67
2019-11-12 19:00:00 8 17 Nordeste 41 Nordeste 0 -- -- 49
2019-11-12 18:00:00 8.4 13 Nordeste 39 Nordeste 0 -- -- 46
2019-11-12 17:00:00 8.7 14 Nordeste 26 Nordeste 0 -- -- 47
2019-11-12 16:00:00 8.5 15 Nordeste 36 Este 0 -- -- 47
2019-11-12 15:00:00 9.3 12 Nordeste 28 Nordeste 0 -- -- 46
2019-11-12 14:00:00 9.3 7 Nordeste 28 Este 0 -- -- 47
2019-11-12 13:00:00 8.6 10 Nordeste 30 Este 0 -- -- 49
2019-11-12 12:00:00 8 15 Este 32 Nordeste 0 -- -- 50
2019-11-12 11:00:00 7.8 13 Nordeste 39 Nordeste 0 -- -- 51
2019-11-12 10:00:00 6.8 22 Nordeste 44 Nordeste 0 -- -- 49
2019-11-12 09:00:00 0.8 8 Sudoeste 20 Sudoeste 0 -- -- 72
2019-11-12 08:00:00 0.8 4 Sudoeste 10 Sudoeste 0 -- -- 69
2019-11-12 07:00:00 1.5 4 Oeste 12 Noroeste 0 -- -- 68
2019-11-12 06:00:00 2.3 3 Nordeste 24 Este 0 -- -- 64
2019-11-12 05:00:00 4.4 9 Nordeste 27 Este 0 -- -- 51
2019-11-12 04:00:00 5.3 16 Nordeste 46 Nordeste 0 -- -- 41
2019-11-12 03:00:00 5.7 19 Nordeste 48 Este 0 -- -- 46
2019-11-12 02:00:00 5.2 18 Nordeste 46 Nordeste 0 -- -- 50
2019-11-12 01:00:00 5.8 24 Nordeste 45 Nordeste 0 -- -- 45
2019-11-12 00:00:00 5.8 24 Nordeste 52 Nordeste 0 -- -- 44
2019-11-11 23:00:00 5.9 28 Nordeste 48 Nordeste 0 -- -- 45
2019-11-11 22:00:00 5.9 21 Este 43 Este 0 -- -- 51
2019-11-11 21:00:00 5.8 25 Nordeste 57 Nordeste 0 -- -- 48
2019-11-11 20:00:00 6.4 28 Este 54 Nordeste 0 -- -- 49
2019-11-11 19:00:00 7 27 Este 59 Este 0 -- -- 54
2019-11-11 18:00:00 6.1 7 Sur 18 Sudeste 0 -- -- 70
2019-11-11 17:00:00 6.7 0 Calma 12 Sudoeste 0.2 -- -- 72
2019-11-11 16:00:00 8 5 Nordeste 30 Este 0 -- -- 76
2019-11-11 15:00:00 10.6 7 Nordeste 22 Oeste 0 -- -- 51
2019-11-11 14:00:00 10.9 6 Oeste 12 Sudoeste 0 -- -- 28
2019-11-11 13:00:00 9.8 9 Sudoeste 12 Oeste 0 -- -- 28
2019-11-11 12:00:00 8.7 7 Sudoeste 13 Oeste 0 -- -- 30
2019-11-11 11:00:00 6.6 5 Oeste 8 Oeste 0 -- -- 45
2019-11-11 10:00:00 4.4 2 Oeste 8 Oeste 0 -- -- 46
2019-11-11 09:00:00 0.8 5 Sudoeste 10 Sudoeste 0 -- -- 69
2019-11-11 08:00:00 -0.3 4 Sudeste 6 Noroeste 0 -- -- 73
2019-11-11 07:00:00 -0.6 3 Sudeste 14 Sudoeste 0 -- -- 65
2019-11-11 06:00:00 1.5 6 Oeste 27 Nordeste 0 -- -- 45
2019-11-11 05:00:00 5.5 13 Nordeste 32 Este 0 -- -- 26
2019-11-11 04:00:00 1.6 9 Oeste 24 Este 0 -- -- 47
2019-11-11 03:00:00 1.3 6 Oeste 37 Este 0 -- -- 49
2019-11-11 02:00:00 5.2 20 Nordeste 37 Este 0 -- -- 29
2019-11-11 01:00:00 5 14 Nordeste 37 Este 0 -- -- 30
2019-11-11 00:00:00 4.3 17 Este 48 Este 0 -- -- 35